Time;durP1;ratioP1;P1;durP2;ratioP2;P2;SDS_P1;SDS_P2;PMS_P1;PMS_P2;Temp;Humidity;BMP_temperature;BMP_pressure;BME280_temperature;BME280_humidity;BME280_pressure;Samples;Min_cycle;Max_cycle;Signal;HPM_P1;HPM_P2
2021/12/25 00:02:22;;;;;;;3.00;2.00;;;;;;;-2.09;76.57;98602.45;103393;1313;137636;-66
2021/12/25 00:04:54;;;;;;;3.70;2.20;;;;;;;-2.15;76.29;98609.64;103479;1313;97856;-65
2021/12/25 00:07:25;;;;;;;4.00;2.20;;;;;;;-2.21;76.49;98614.63;103406;1314;137375;-66
2021/12/25 00:09:58;;;;;;;4.50;2.10;;;;;;;-2.26;76.27;98624.03;103501;1313;108974;-66
2021/12/25 00:12:30;;;;;;;4.00;2.30;;;;;;;-2.30;76.33;98634.61;103410;1313;138699;-66
2021/12/25 00:15:04;;;;;;;4.10;2.30;;;;;;;-2.32;76.56;98641.62;104804;1315;95885;-66
2021/12/25 00:17:35;;;;;;;4.00;2.30;;;;;;;-2.34;76.53;98642.63;103733;1313;97847;-66
2021/12/25 00:20:09;;;;;;;4.20;2.40;;;;;;;-2.35;76.40;98650.96;103387;1313;138622;-66
2021/12/25 00:22:41;;;;;;;3.50;2.10;;;;;;;-2.36;76.20;98651.99;104323;1312;107944;-65
2021/12/25 00:25:13;;;;;;;3.50;2.40;;;;;;;-2.38;76.32;98657.80;103351;1312;138599;-65
2021/12/25 00:27:56;;;;;;;3.30;2.10;;;;;;;-2.39;75.96;98672.45;103487;1313;97841;-65
2021/12/25 00:30:36;;;;;;;4.50;2.30;;;;;;;-2.40;76.18;98678.07;103446;1313;138451;-66
2021/12/25 00:33:30;;;;;;;7.00;2.50;;;;;;;-2.38;76.23;98688.43;103494;1312;112538;-66
2021/12/25 00:35:59;;;;;;;5.10;2.30;;;;;;;-2.38;76.43;98700.70;103552;1313;108570;-66
2021/12/25 00:38:32;;;;;;;4.70;2.50;;;;;;;-2.38;76.27;98706.30;103407;1313;137627;-66
2021/12/25 00:41:04;;;;;;;5.50;2.80;;;;;;;-2.36;76.34;98711.06;104063;1313;97984;-66
2021/12/25 00:43:37;;;;;;;4.90;2.50;;;;;;;-2.35;76.41;98722.27;103501;1314;138549;-66
2021/12/25 00:46:09;;;;;;;4.70;2.60;;;;;;;-2.36;76.62;98729.61;103371;1314;112671;-66
2021/12/25 00:48:42;;;;;;;5.70;2.80;;;;;;;-2.41;76.48;98735.44;103488;1313;137751;-67
2021/12/25 00:51:14;;;;;;;4.50;2.70;;;;;;;-2.47;76.38;98742.27;103327;1313;107794;-66
2021/12/25 00:53:47;;;;;;;8.60;2.60;;;;;;;-2.54;76.15;98749.94;103459;1312;97880;-65
2021/12/25 00:56:20;;;;;;;4.30;2.20;;;;;;;-2.58;76.44;98752.17;103459;1312;138045;-66
2021/12/25 00:58:52;;;;;;;3.20;2.10;;;;;;;-2.59;76.12;98755.08;103274;1317;112440;-66
2021/12/25 01:01:24;;;;;;;6.00;2.30;;;;;;;-2.58;76.26;98757.62;103351;1319;138565;-65
2021/12/25 01:03:56;;;;;;;6.70;2.30;;;;;;;-2.62;75.75;98766.15;104805;1313;106639;-65
2021/12/25 01:06:28;;;;;;;4.50;2.30;;;;;;;-2.63;75.91;98776.36;104180;1312;138046;-66
2021/12/25 01:09:00;;;;;;;5.10;2.30;;;;;;;-2.68;75.64;98792.02;103560;1314;98508;-66
2021/12/25 01:11:34;;;;;;;4.30;2.40;;;;;;;-2.74;75.36;98797.98;103327;1313;112730;-66
2021/12/25 01:14:13;;;;;;;3.40;2.10;;;;;;;-2.81;75.57;98806.00;104109;1310;138046;-66
2021/12/25 01:20:24;;;;;;;5.40;2.40;;;;;;;-2.96;75.53;98826.09;102707;1329;137891;-66
2021/12/25 01:26:32;;;;;;;3.50;1.70;;;;;;;-3.12;74.91;98844.95;102180;1324;138321;-65
2021/12/25 01:38:37;;;;;;;3.60;1.70;;;;;;;-3.27;74.72;98866.54;100946;1336;138510;-66
2021/12/25 01:41:57;;;;;;;5.60;1.90;;;;;;;-3.30;74.78;98877.08;101296;1336;112238;-65
2021/12/25 01:47:47;;;;;;;5.80;1.70;;;;;;;-3.49;74.27;98886.21;101383;1336;108766;-67
2021/12/25 01:50:22;;;;;;;6.10;1.70;;;;;;;-3.57;74.24;98895.39;102465;1336;138301;-66
2021/12/25 01:52:55;;;;;;;4.90;1.80;;;;;;;-3.63;74.20;98903.84;102053;1344;96048;-67
2021/12/25 01:55:28;;;;;;;3.10;1.60;;;;;;;-3.72;73.83;98914.54;102414;1339;137694;-67
2021/12/25 01:58:02;;;;;;;2.90;1.50;;;;;;;-3.78;73.73;98917.55;102875;1330;108948;-67
2021/12/25 02:00:40;;;;;;;3.10;1.40;;;;;;;-3.84;73.86;98921.78;102449;1332;138976;-67
2021/12/25 02:03:14;;;;;;;3.40;1.40;;;;;;;-3.91;73.80;98928.89;103234;1330;96311;-67
2021/12/25 02:05:47;;;;;;;4.10;1.60;;;;;;;-3.98;73.55;98927.48;102770;1329;96861;-67
2021/12/25 02:08:29;;;;;;;7.80;1.70;;;;;;;-4.04;73.99;98939.34;103326;1328;138676;-67
2021/12/25 02:11:01;;;;;;;4.50;1.80;;;;;;;-4.08;73.84;98942.56;103332;1326;108831;-66
2021/12/25 02:13:34;;;;;;;3.30;1.40;;;;;;;-4.08;74.03;98948.15;103275;1318;138715;-66
2021/12/25 02:16:12;;;;;;;5.30;1.60;;;;;;;-4.10;74.20;98948.66;104267;1314;96059;-65
2021/12/25 02:18:58;;;;;;;6.10;1.70;;;;;;;-4.12;73.97;98956.10;103439;1313;137531;-67
2021/12/25 02:21:39;;;;;;;4.80;1.80;;;;;;;-4.14;73.88;98965.41;103487;1313;112604;-65
2021/12/25 02:24:14;;;;;;;3.70;1.60;;;;;;;-4.18;73.84;98972.69;103571;1316;108924;-65
2021/12/25 02:26:47;;;;;;;2.80;1.60;;;;;;;-4.22;73.87;98982.69;103273;1313;139205;-65
2021/12/25 02:29:26;;;;;;;4.80;1.90;;;;;;;-4.29;73.82;98985.02;103510;1312;97864;-66
2021/12/25 02:31:58;;;;;;;2.80;1.90;;;;;;;-4.39;73.59;98988.34;103438;1313;137617;-67
2021/12/25 02:34:30;;;;;;;5.10;1.70;;;;;;;-4.48;73.47;98993.19;103366;1314;112636;-66
2021/12/25 02:37:03;;;;;;;4.80;1.80;;;;;;;-4.55;73.58;98993.47;103255;1314;138864;-66
2021/12/25 02:39:36;;;;;;;4.00;1.80;;;;;;;-4.64;73.55;99011.55;104656;1313;108488;-66
2021/12/25 02:42:11;;;;;;;3.80;1.60;;;;;;;-4.70;73.65;99014.19;103850;1313;97985;-67
2021/12/25 02:44:43;;;;;;;4.20;1.70;;;;;;;-4.75;73.92;99019.58;103326;1312;138914;-66
2021/12/25 02:47:20;;;;;;;4.40;1.70;;;;;;;-4.78;73.92;99024.81;103315;1313;112723;-66
2021/12/25 02:49:54;;;;;;;3.70;1.80;;;;;;;-4.82;74.25;99028.85;103448;1312;140348;-65
2021/12/25 02:52:26;;;;;;;3.80;1.90;;;;;;;-4.83;74.46;99031.73;103294;1314;109459;-66
2021/12/25 02:54:57;;;;;;;4.60;1.80;;;;;;;-4.83;74.34;99037.66;103388;1313;139611;-66
2021/12/25 02:57:31;;;;;;;5.80;1.80;;;;;;;-4.81;74.40;99042.93;103383;1314;97836;-65
2021/12/25 03:00:03;;;;;;;2.90;1.70;;;;;;;-4.82;74.16;99043.27;103321;1314;111563;-66
2021/12/25 03:02:35;;;;;;;6.60;1.90;;;;;;;-4.87;73.85;99047.10;103212;1313;138100;-65
2021/12/25 03:05:09;;;;;;;4.90;1.70;;;;;;;-4.91;73.81;99051.47;103293;1315;107939;-66
2021/12/25 03:07:41;;;;;;;5.50;2.00;;;;;;;-4.94;74.03;99059.23;103346;1314;140008;-65
2021/12/25 03:10:16;;;;;;;5.00;2.10;;;;;;;-5.00;73.98;99064.27;103524;1312;97938;-66
2021/12/25 03:12:52;;;;;;;5.30;2.00;;;;;;;-5.03;73.93;99069.64;103405;1313;139158;-65
2021/12/25 03:15:30;;;;;;;;;;;;;;;-5.07;73.84;99071.63;103343;1315;108782;-65
2021/12/25 03:18:02;;;;;;;7.30;2.20;;;;;;;-5.13;74.16;99073.60;103268;1313;112008;-65
2021/12/25 03:20:34;;;;;;;5.00;2.10;;;;;;;-5.18;74.25;99078.47;103407;1313;138073;-65
2021/12/25 03:23:06;;;;;;;3.20;1.90;;;;;;;-5.25;74.05;99078.36;103574;1312;97940;-66
2021/12/25 03:25:40;;;;;;;8.70;2.20;;;;;;;-5.31;74.31;99086.76;103406;1312;138914;-65
2021/12/25 03:28:12;;;;;;;7.30;2.20;;;;;;;-5.36;74.53;99098.06;104238;1313;109095;-64
2021/12/25 03:30:45;;;;;;;4.50;2.00;;;;;;;-5.41;74.49;99096.46;103901;1313;140169;-65
2021/12/25 03:33:18;;;;;;;5.40;2.40;;;;;;;-5.44;74.43;99105.90;104508;1313;96109;-65
2021/12/25 03:35:50;;;;;;;5.60;2.00;;;;;;;-5.46;74.61;99107.41;103609;1315;97986;-65
2021/12/25 03:38:24;;;;;;;4.10;1.90;;;;;;;-5.48;74.29;99113.99;103441;1313;138651;-65
2021/12/25 03:40:56;;;;;;;5.50;2.30;;;;;;;-5.51;74.39;99113.45;103568;1315;109006;-65
2021/12/25 03:43:28;;;;;;;5.50;2.40;;;;;;;-5.52;74.25;99120.38;103406;1312;140221;-65
2021/12/25 03:46:00;;;;;;;5.70;2.10;;;;;;;-5.54;74.20;99128.14;103448;1313;98001;-65
2021/12/25 03:48:57;;;;;;;5.80;2.10;;;;;;;-5.58;74.15;99129.25;103447;1313;137895;-66
2021/12/25 04:00:03;;;;;;;5.90;2.40;;;;;;;-5.93;73.82;99151.61;104800;1310;96228;-66
2021/12/25 04:02:54;;;;;;;5.70;2.30;;;;;;;-5.99;73.89;99153.71;104752;1312;137542;-66
2021/12/25 04:05:40;;;;;;;5.10;2.10;;;;;;;-6.07;73.87;99157.65;103684;1315;112540;-65
2021/12/25 04:08:15;;;;;;;5.00;2.00;;;;;;;-6.14;73.84;99163.44;103474;1312;138145;-64
2021/12/25 04:10:50;;;;;;;5.70;2.10;;;;;;;-6.19;73.95;99165.06;103536;1314;106186;-65
2021/12/25 04:13:22;;;;;;;6.20;2.50;;;;;;;-6.22;73.93;99173.81;103307;1313;152490;-67
2021/12/25 04:15:54;;;;;;;4.20;2.00;;;;;;;-6.24;73.93;99179.19;103165;1313;224855;-65
2021/12/25 04:18:26;;;;;;;6.40;2.40;;;;;;;-6.25;73.94;99187.30;103474;1312;111042;-65
2021/12/25 04:20:58;;;;;;;5.10;2.10;;;;;;;-6.26;73.75;99189.64;103376;1313;138791;-66
2021/12/25 04:23:30;;;;;;;3.20;1.70;;;;;;;-6.24;73.72;99194.23;103602;1312;109199;-66
2021/12/25 04:26:01;;;;;;;6.10;2.20;;;;;;;-6.26;73.49;99201.64;103408;1313;137532;-66
2021/12/25 04:28:40;;;;;;;3.70;2.10;;;;;;;-6.30;73.43;99202.41;103369;1313;97957;-66
2021/12/25 04:31:29;;;;;;;6.60;2.60;;;;;;;-6.37;73.18;99204.48;103309;1313;137856;-66
2021/12/25 05:02:30;;;;;;;5.40;3.20;;;;;;;-6.97;73.46;99254.33;102872;1318;139330;-66
2021/12/25 05:05:05;;;;;;;6.20;3.10;;;;;;;-6.96;73.61;99251.65;102957;1322;108918;-65
2021/12/25 05:07:45;;;;;;;6.60;3.30;;;;;;;-6.94;73.50;99256.93;102858;1319;138618;-66
2021/12/25 05:10:17;;;;;;;5.40;3.10;;;;;;;-6.90;73.62;99259.89;102871;1319;98085;-65
2021/12/25 05:12:48;;;;;;;6.30;3.20;;;;;;;-6.87;73.60;99265.69;103034;1318;112482;-66
2021/12/25 05:15:20;;;;;;;9.80;3.80;;;;;;;-6.83;73.60;99265.10;102733;1321;138512;-65
2021/12/25 05:17:52;;;;;;;7.50;3.40;;;;;;;-6.82;73.43;99270.05;102888;1318;107233;-65
2021/12/25 05:20:24;;;;;;;7.30;3.30;;;;;;;-6.82;73.54;99270.54;102792;1318;138729;-65
2021/12/25 05:22:56;;;;;;;7.30;3.60;;;;;;;-6.80;73.57;99274.80;102905;1318;98232;-64
2021/12/25 05:25:29;;;;;;;10.20;3.80;;;;;;;-6.81;73.38;99279.88;102917;1319;138846;-64
2021/12/25 05:28:04;;;;;;;8.80;3.90;;;;;;;-6.79;73.41;99278.55;102998;1318;108537;-64
2021/12/25 05:30:37;;;;;;;8.50;3.50;;;;;;;-6.86;73.36;99283.63;103097;1318;108899;-65
